BVY weather

Beverly Municipal Airport
Beverly, Massachusetts, United States

Public forecast

Using degrees Fahrenheit for public forecast. Weather courtesy of forecast.io.

METAR (pilot weather report)

Retrieved 2018/08/20 22:53 UTC (10 minutes ago):

KBVY 202253Z VRB06KT 10SM CLR 21/16 A3015 RMK AO2 SLP204 T02060156

TAF (pilot weather forecast)

Closest forecast is General Edward Lawrence Logan International Airport, 13.8 nm (25.5 km) SSW. Retrieved 2018/08/20 18:31 UTC (5 hours ago):

TAF KBOS 201728Z 2018/2124 07013KT P6SM FEW080 FM210100 06007KT P6SM SCT250 FM210600 04005KT P6SM BKN008 FM210800 02006KT 3SM BR BKN005 FM211100 03006KT P6SM BKN008 FM211400 06008KT P6SM BKN015